sensor_id;sensor_type;location;lat;lon;timestamp;temperature;humidity
76211;DHT22;65003;49.518;11.280;2023-04-05T00:03:14;1.40;64.90
76211;DHT22;65003;49.518;11.280;2023-04-05T00:05:41;1.30;66.30
76211;DHT22;65003;49.518;11.280;2023-04-05T00:08:07;1.20;66.40
76211;DHT22;65003;49.518;11.280;2023-04-05T00:10:34;1.10;66.50
76211;DHT22;65003;49.518;11.280;2023-04-05T00:13:00;1.10;66.60
76211;DHT22;65003;49.518;11.280;2023-04-05T00:15:27;1.00;66.70
76211;DHT22;65003;49.518;11.280;2023-04-05T00:17:55;1.00;66.90
76211;DHT22;65003;49.518;11.280;2023-04-05T00:20:21;1.10;66.90
76211;DHT22;65003;49.518;11.280;2023-04-05T00:22:48;1.20;66.70
76211;DHT22;65003;49.518;11.280;2023-04-05T00:25:16;1.20;66.70
76211;DHT22;65003;49.518;11.280;2023-04-05T00:27:42;1.10;66.50
76211;DHT22;65003;49.518;11.280;2023-04-05T00:30:09;1.10;66.80
76211;DHT22;65003;49.518;11.280;2023-04-05T00:32:36;1.10;66.70
76211;DHT22;65003;49.518;11.280;2023-04-05T00:35:03;1.20;66.70
76211;DHT22;65003;49.518;11.280;2023-04-05T00:37:29;1.20;66.60
76211;DHT22;65003;49.518;11.280;2023-04-05T00:39:56;1.20;66.70
76211;DHT22;65003;49.518;11.280;2023-04-05T00:42:23;1.30;66.20
76211;DHT22;65003;49.518;11.280;2023-04-05T00:44:49;1.30;66.40
76211;DHT22;65003;49.518;11.280;2023-04-05T00:47:16;1.30;66.20
76211;DHT22;65003;49.518;11.280;2023-04-05T00:49:42;1.40;65.50
76211;DHT22;65003;49.518;11.280;2023-04-05T00:52:09;1.50;65.40
76211;DHT22;65003;49.518;11.280;2023-04-05T00:54:36;1.50;64.90
76211;DHT22;65003;49.518;11.280;2023-04-05T00:57:02;1.40;65.20
76211;DHT22;65003;49.518;11.280;2023-04-05T00:59:30;1.40;65.40
76211;DHT22;65003;49.518;11.280;2023-04-05T01:02:10;1.50;65.10
76211;DHT22;65003;49.518;11.280;2023-04-05T01:04:37;1.40;64.70
76211;DHT22;65003;49.518;11.280;2023-04-05T01:07:12;1.30;64.90
76211;DHT22;65003;49.518;11.280;2023-04-05T01:12:09;1.20;66.10
76211;DHT22;65003;49.518;11.280;2023-04-05T01:14:53;1.30;66.00
76211;DHT22;65003;49.518;11.280;2023-04-05T01:17:18;1.50;65.40
76211;DHT22;65003;49.518;11.280;2023-04-05T01:19:45;1.70;64.40
76211;DHT22;65003;49.518;11.280;2023-04-05T01:22:34;2.00;62.70
76211;DHT22;65003;49.518;11.280;2023-04-05T01:25:08;2.20;62.10
76211;DHT22;65003;49.518;11.280;2023-04-05T01:27:37;2.10;61.30
76211;DHT22;65003;49.518;11.280;2023-04-05T01:30:05;1.90;61.90
76211;DHT22;65003;49.518;11.280;2023-04-05T01:33:43;1.70;62.80
76211;DHT22;65003;49.518;11.280;2023-04-05T01:35:31;1.50;63.50
76211;DHT22;65003;49.518;11.280;2023-04-05T01:37:58;1.40;64.30
76211;DHT22;65003;49.518;11.280;2023-04-05T01:40:23;1.30;64.90
76211;DHT22;65003;49.518;11.280;2023-04-05T01:42:49;1.20;65.20
76211;DHT22;65003;49.518;11.280;2023-04-05T01:45:16;1.20;65.80
76211;DHT22;65003;49.518;11.280;2023-04-05T01:47:42;1.20;65.80
76211;DHT22;65003;49.518;11.280;2023-04-05T01:50:09;1.00;66.20
76211;DHT22;65003;49.518;11.280;2023-04-05T01:52:36;0.90;66.50
76211;DHT22;65003;49.518;11.280;2023-04-05T01:55:02;0.80;67.10
76211;DHT22;65003;49.518;11.280;2023-04-05T01:57:29;0.90;67.50
76211;DHT22;65003;49.518;11.280;2023-04-05T01:59:56;1.20;66.80
76211;DHT22;65003;49.518;11.280;2023-04-05T02:02:22;1.40;66.30
76211;DHT22;65003;49.518;11.280;2023-04-05T02:04:49;1.60;65.50
76211;DHT22;65003;49.518;11.280;2023-04-05T02:07:15;1.50;64.80
76211;DHT22;65003;49.518;11.280;2023-04-05T02:09:42;1.50;64.70
76211;DHT22;65003;49.518;11.280;2023-04-05T02:12:09;1.60;64.50
76211;DHT22;65003;49.518;11.280;2023-04-05T02:14:35;1.70;63.70
76211;DHT22;65003;49.518;11.280;2023-04-05T02:17:02;1.90;62.80
76211;DHT22;65003;49.518;11.280;2023-04-05T02:19:28;2.00;62.20
76211;DHT22;65003;49.518;11.280;2023-04-05T02:21:55;2.10;61.80
76211;DHT22;65003;49.518;11.280;2023-04-05T02:24:22;2.10;62.40
76211;DHT22;65003;49.518;11.280;2023-04-05T02:26:48;2.00;61.60
76211;DHT22;65003;49.518;11.280;2023-04-05T02:29:15;1.90;62.30
76211;DHT22;65003;49.518;11.280;2023-04-05T02:31:41;1.90;62.90
76211;DHT22;65003;49.518;11.280;2023-04-05T02:34:08;2.00;62.60
76211;DHT22;65003;49.518;11.280;2023-04-05T02:36:34;2.10;61.80
76211;DHT22;65003;49.518;11.280;2023-04-05T02:39:01;2.00;62.10
76211;DHT22;65003;49.518;11.280;2023-04-05T02:41:28;1.70;63.00
76211;DHT22;65003;49.518;11.280;2023-04-05T02:43:54;1.40;64.00
76211;DHT22;65003;49.518;11.280;2023-04-05T02:46:21;1.30;64.50
76211;DHT22;65003;49.518;11.280;2023-04-05T02:48:47;1.50;64.80
76211;DHT22;65003;49.518;11.280;2023-04-05T02:51:14;1.70;63.70
76211;DHT22;65003;49.518;11.280;2023-04-05T02:53:40;1.90;62.20
76211;DHT22;65003;49.518;11.280;2023-04-05T02:56:07;2.10;61.60
76211;DHT22;65003;49.518;11.280;2023-04-05T02:58:34;2.20;60.60
76211;DHT22;65003;49.518;11.280;2023-04-05T03:01:01;2.30;61.10
76211;DHT22;65003;49.518;11.280;2023-04-05T03:03:27;2.30;60.10
76211;DHT22;65003;49.518;11.280;2023-04-05T03:05:57;2.30;60.00
76211;DHT22;65003;49.518;11.280;2023-04-05T03:08:22;2.20;59.70
76211;DHT22;65003;49.518;11.280;2023-04-05T03:10:50;2.30;60.20
76211;DHT22;65003;49.518;11.280;2023-04-05T03:13:16;2.20;61.60
76211;DHT22;65003;49.518;11.280;2023-04-05T03:15:43;2.10;61.00
76211;DHT22;65003;49.518;11.280;2023-04-05T03:18:09;2.10;61.30
76211;DHT22;65003;49.518;11.280;2023-04-05T03:20:36;2.10;61.40
76211;DHT22;65003;49.518;11.280;2023-04-05T03:23:03;2.00;61.50
76211;DHT22;65003;49.518;11.280;2023-04-05T03:25:30;1.90;61.50
76211;DHT22;65003;49.518;11.280;2023-04-05T03:27:57;1.90;61.90
76211;DHT22;65003;49.518;11.280;2023-04-05T03:30:23;1.90;61.80
76211;DHT22;65003;49.518;11.280;2023-04-05T03:32:50;1.90;62.10
76211;DHT22;65003;49.518;11.280;2023-04-05T03:35:16;1.80;62.30
76211;DHT22;65003;49.518;11.280;2023-04-05T03:37:43;1.80;62.50
76211;DHT22;65003;49.518;11.280;2023-04-05T03:40:10;1.70;62.50
76211;DHT22;65003;49.518;11.280;2023-04-05T03:42:36;1.60;62.90
76211;DHT22;65003;49.518;11.280;2023-04-05T03:45:04;1.50;63.60
76211;DHT22;65003;49.518;11.280;2023-04-05T03:47:31;1.30;64.30
76211;DHT22;65003;49.518;11.280;2023-04-05T03:49:57;0.90;65.60
76211;DHT22;65003;49.518;11.280;2023-04-05T03:52:24;0.60;67.10
76211;DHT22;65003;49.518;11.280;2023-04-05T03:54:50;0.70;67.50
76211;DHT22;65003;49.518;11.280;2023-04-05T03:57:17;0.90;67.00
76211;DHT22;65003;49.518;11.280;2023-04-05T03:59:43;1.20;65.80
76211;DHT22;65003;49.518;11.280;2023-04-05T04:02:10;1.40;64.90
76211;DHT22;65003;49.518;11.280;2023-04-05T04:04:37;1.40;64.80
76211;DHT22;65003;49.518;11.280;2023-04-05T04:07:03;1.30;64.40
76211;DHT22;65003;49.518;11.280;2023-04-05T04:09:30;1.20;65.10
76211;DHT22;65003;49.518;11.280;2023-04-05T04:11:56;1.10;65.50
76211;DHT22;65003;49.518;11.280;2023-04-05T04:14:24;1.20;65.20
76211;DHT22;65003;49.518;11.280;2023-04-05T04:16:51;1.30;65.10
76211;DHT22;65003;49.518;11.280;2023-04-05T04:19:17;1.10;65.30
76211;DHT22;65003;49.518;11.280;2023-04-05T04:21:44;0.90;66.10
76211;DHT22;65003;49.518;11.280;2023-04-05T04:24:11;0.90;66.80
76211;DHT22;65003;49.518;11.280;2023-04-05T04:26:39;1.10;65.90
76211;DHT22;65003;49.518;11.280;2023-04-05T04:29:06;1.40;64.70
76211;DHT22;65003;49.518;11.280;2023-04-05T04:31:32;1.60;63.50
76211;DHT22;65003;49.518;11.280;2023-04-05T04:33:59;1.70;62.90
76211;DHT22;65003;49.518;11.280;2023-04-05T04:36:26;1.70;63.00
76211;DHT22;65003;49.518;11.280;2023-04-05T04:38:52;1.80;62.50
76211;DHT22;65003;49.518;11.280;2023-04-05T04:41:19;1.80;62.50
76211;DHT22;65003;49.518;11.280;2023-04-05T04:43:45;1.80;62.10
76211;DHT22;65003;49.518;11.280;2023-04-05T04:46:12;1.90;61.70
76211;DHT22;65003;49.518;11.280;2023-04-05T04:48:40;1.80;61.80
76211;DHT22;65003;49.518;11.280;2023-04-05T04:51:07;1.80;62.10
76211;DHT22;65003;49.518;11.280;2023-04-05T04:53:33;1.70;62.30
76211;DHT22;65003;49.518;11.280;2023-04-05T04:56:00;1.80;62.20
76211;DHT22;65003;49.518;11.280;2023-04-05T04:58:26;1.70;62.40
76211;DHT22;65003;49.518;11.280;2023-04-05T05:00:53;1.80;62.60
76211;DHT22;65003;49.518;11.280;2023-04-05T05:03:20;1.80;62.30
76211;DHT22;65003;49.518;11.280;2023-04-05T05:05:48;1.70;62.70
76211;DHT22;65003;49.518;11.280;2023-04-05T05:08:13;1.60;63.10
76211;DHT22;65003;49.518;11.280;2023-04-05T05:10:39;1.50;64.10
76211;DHT22;65003;49.518;11.280;2023-04-05T05:13:06;1.60;63.20
76211;DHT22;65003;49.518;11.280;2023-04-05T05:15:33;1.70;62.90
76211;DHT22;65003;49.518;11.280;2023-04-05T05:17:59;1.90;62.30
76211;DHT22;65003;49.518;11.280;2023-04-05T05:20:26;2.00;62.00
76211;DHT22;65003;49.518;11.280;2023-04-05T05:22:53;2.00;62.50
76211;DHT22;65003;49.518;11.280;2023-04-05T05:25:19;2.10;61.60
76211;DHT22;65003;49.518;11.280;2023-04-05T05:27:49;2.20;61.30
76211;DHT22;65003;49.518;11.280;2023-04-05T05:30:16;2.30;61.10
76211;DHT22;65003;49.518;11.280;2023-04-05T05:32:42;2.30;61.30
76211;DHT22;65003;49.518;11.280;2023-04-05T05:35:09;2.40;61.40
76211;DHT22;65003;49.518;11.280;2023-04-05T05:37:35;2.50;61.10
76211;DHT22;65003;49.518;11.280;2023-04-05T05:40:02;2.80;60.00
76211;DHT22;65003;49.518;11.280;2023-04-05T05:42:29;3.10;58.90
76211;DHT22;65003;49.518;11.280;2023-04-05T05:44:56;3.50;57.80
76211;DHT22;65003;49.518;11.280;2023-04-05T05:47:23;3.70;57.00
76211;DHT22;65003;49.518;11.280;2023-04-05T05:49:50;3.70;56.40
76211;DHT22;65003;49.518;11.280;2023-04-05T05:52:16;3.80;56.80
76211;DHT22;65003;49.518;11.280;2023-04-05T05:54:43;4.00;56.10
76211;DHT22;65003;49.518;11.280;2023-04-05T05:57:10;4.00;55.90
76211;DHT22;65003;49.518;11.280;2023-04-05T05:59:36;4.00;56.50
76211;DHT22;65003;49.518;11.280;2023-04-05T06:02:03;3.90;55.90
76211;DHT22;65003;49.518;11.280;2023-04-05T06:04:29;3.80;56.10
76211;DHT22;65003;49.518;11.280;2023-04-05T06:06:56;3.50;56.60
76211;DHT22;65003;49.518;11.280;2023-04-05T06:09:23;3.50;57.10
76211;DHT22;65003;49.518;11.280;2023-04-05T06:11:50;3.60;57.60
76211;DHT22;65003;49.518;11.280;2023-04-05T06:14:16;3.60;57.20
76211;DHT22;65003;49.518;11.280;2023-04-05T06:16:43;3.50;57.80
76211;DHT22;65003;49.518;11.280;2023-04-05T06:19:10;3.50;57.50
76211;DHT22;65003;49.518;11.280;2023-04-05T06:21:36;3.70;58.00
76211;DHT22;65003;49.518;11.280;2023-04-05T06:24:03;3.90;57.40
76211;DHT22;65003;49.518;11.280;2023-04-05T06:26:30;4.00;56.00
76211;DHT22;65003;49.518;11.280;2023-04-05T06:28:56;4.00;56.10
76211;DHT22;65003;49.518;11.280;2023-04-05T06:31:26;4.30;55.40
76211;DHT22;65003;49.518;11.280;2023-04-05T06:33:52;4.40;55.10
76211;DHT22;65003;49.518;11.280;2023-04-05T06:36:18;4.50;55.20
76211;DHT22;65003;49.518;11.280;2023-04-05T06:38:45;4.90;54.80
76211;DHT22;65003;49.518;11.280;2023-04-05T06:41:12;5.20;53.30
76211;DHT22;65003;49.518;11.280;2023-04-05T06:43:38;5.40;53.10
76211;DHT22;65003;49.518;11.280;2023-04-05T06:46:05;5.50;52.70
76211;DHT22;65003;49.518;11.280;2023-04-05T06:48:32;5.50;51.90
76211;DHT22;65003;49.518;11.280;2023-04-05T06:50:59;5.60;51.60
76211;DHT22;65003;49.518;11.280;2023-04-05T06:53:25;5.50;51.40
76211;DHT22;65003;49.518;11.280;2023-04-05T06:55:53;5.50;51.60
76211;DHT22;65003;49.518;11.280;2023-04-05T06:58:19;5.20;51.40
76211;DHT22;65003;49.518;11.280;2023-04-05T07:00:46;5.00;52.10
76211;DHT22;65003;49.518;11.280;2023-04-05T07:03:12;5.00;52.10
76211;DHT22;65003;49.518;11.280;2023-04-05T07:05:39;4.90;52.50
76211;DHT22;65003;49.518;11.280;2023-04-05T07:08:05;4.80;52.20
76211;DHT22;65003;49.518;11.280;2023-04-05T07:10:32;4.90;52.40
76211;DHT22;65003;49.518;11.280;2023-04-05T07:12:59;5.10;52.10
76211;DHT22;65003;49.518;11.280;2023-04-05T07:15:25;5.30;51.30
76211;DHT22;65003;49.518;11.280;2023-04-05T07:17:52;5.40;50.70
76211;DHT22;65003;49.518;11.280;2023-04-05T07:20:18;5.70;50.80
76211;DHT22;65003;49.518;11.280;2023-04-05T07:22:45;6.00;49.00
76211;DHT22;65003;49.518;11.280;2023-04-05T07:25:11;5.90;49.00
76211;DHT22;65003;49.518;11.280;2023-04-05T07:27:38;5.90;49.30
76211;DHT22;65003;49.518;11.280;2023-04-05T07:30:05;6.20;48.70
76211;DHT22;65003;49.518;11.280;2023-04-05T07:32:33;6.80;46.90
76211;DHT22;65003;49.518;11.280;2023-04-05T07:34:59;7.20;46.20
76211;DHT22;65003;49.518;11.280;2023-04-05T07:37:25;8.40;44.50
76211;DHT22;65003;49.518;11.280;2023-04-05T07:39:52;9.80;41.40
76211;DHT22;65003;49.518;11.280;2023-04-05T07:42:19;10.30;39.40
76211;DHT22;65003;49.518;11.280;2023-04-05T07:44:45;11.20;37.90
76211;DHT22;65003;49.518;11.280;2023-04-05T07:47:12;13.10;35.60
76211;DHT22;65003;49.518;11.280;2023-04-05T07:49:38;15.50;31.10
76211;DHT22;65003;49.518;11.280;2023-04-05T07:52:05;17.00;30.20
76211;DHT22;65003;49.518;11.280;2023-04-05T07:54:32;18.30;27.70
76211;DHT22;65003;49.518;11.280;2023-04-05T07:56:59;19.00;26.20
76211;DHT22;65003;49.518;11.280;2023-04-05T07:59:26;19.70;25.70
76211;DHT22;65003;49.518;11.280;2023-04-05T08:01:52;21.40;24.50
76211;DHT22;65003;49.518;11.280;2023-04-05T08:04:19;23.30;22.40
76211;DHT22;65003;49.518;11.280;2023-04-05T08:06:46;25.00;20.20
76211;DHT22;65003;49.518;11.280;2023-04-05T08:09:12;26.40;19.20
76211;DHT22;65003;49.518;11.280;2023-04-05T08:11:38;27.50;18.40
76211;DHT22;65003;49.518;11.280;2023-04-05T08:14:05;26.60;18.40
76211;DHT22;65003;49.518;11.280;2023-04-05T08:16:32;24.90;18.80
76211;DHT22;65003;49.518;11.280;2023-04-05T08:19:00;23.50;19.80
76211;DHT22;65003;49.518;11.280;2023-04-05T08:21:26;22.40;20.60
76211;DHT22;65003;49.518;11.280;2023-04-05T08:23:53;21.30;21.90
76211;DHT22;65003;49.518;11.280;2023-04-05T08:26:20;19.70;22.70
76211;DHT22;65003;49.518;11.280;2023-04-05T08:28:46;18.70;24.20
76211;DHT22;65003;49.518;11.280;2023-04-05T08:31:13;18.20;24.40
76211;DHT22;65003;49.518;11.280;2023-04-05T08:33:40;18.20;24.60
76211;DHT22;65003;49.518;11.280;2023-04-05T08:36:07;19.90;22.80
76211;DHT22;65003;49.518;11.280;2023-04-05T08:38:33;21.90;20.80
76211;DHT22;65003;49.518;11.280;2023-04-05T08:41:07;23.60;19.50
76211;DHT22;65003;49.518;11.280;2023-04-05T08:43:33;24.60;18.50
76211;DHT22;65003;49.518;11.280;2023-04-05T08:45:59;24.60;18.40
76211;DHT22;65003;49.518;11.280;2023-04-05T08:48:26;24.50;18.10
76211;DHT22;65003;49.518;11.280;2023-04-05T08:50:52;24.20;18.10
76211;DHT22;65003;49.518;11.280;2023-04-05T08:53:19;22.40;18.90
76211;DHT22;65003;49.518;11.280;2023-04-05T08:55:48;21.60;20.00
76211;DHT22;65003;49.518;11.280;2023-04-05T08:58:14;21.80;20.20
76211;DHT22;65003;49.518;11.280;2023-04-05T09:00:41;22.50;19.90
76211;DHT22;65003;49.518;11.280;2023-04-05T09:03:09;23.10;18.60
76211;DHT22;65003;49.518;11.280;2023-04-05T09:05:35;22.60;18.70
76211;DHT22;65003;49.518;11.280;2023-04-05T09:08:00;21.60;19.30
76211;DHT22;65003;49.518;11.280;2023-04-05T09:10:27;20.70;20.00
76211;DHT22;65003;49.518;11.280;2023-04-05T09:12:54;20.40;21.00
76211;DHT22;65003;49.518;11.280;2023-04-05T09:15:20;20.00;20.90
76211;DHT22;65003;49.518;11.280;2023-04-05T09:17:48;19.40;21.60
76211;DHT22;65003;49.518;11.280;2023-04-05T09:20:14;18.40;22.10
76211;DHT22;65003;49.518;11.280;2023-04-05T09:22:45;19.00;21.60
76211;DHT22;65003;49.518;11.280;2023-04-05T09:25:43;20.50;20.70
76211;DHT22;65003;49.518;11.280;2023-04-05T09:27:54;20.80;19.30
76211;DHT22;65003;49.518;11.280;2023-04-05T09:30:22;20.60;19.50
76211;DHT22;65003;49.518;11.280;2023-04-05T09:32:50;20.50;19.90
76211;DHT22;65003;49.518;11.280;2023-04-05T09:35:18;20.10;20.50
76211;DHT22;65003;49.518;11.280;2023-04-05T09:37:50;19.80;20.70
76211;DHT22;65003;49.518;11.280;2023-04-05T09:40:19;21.40;19.70
76211;DHT22;65003;49.518;11.280;2023-04-05T09:42:46;22.40;19.10
76211;DHT22;65003;49.518;11.280;2023-04-05T09:45:14;28.60;17.70
76211;DHT22;65003;49.518;11.280;2023-04-05T09:47:40;29.80;14.20
76211;DHT22;65003;49.518;11.280;2023-04-05T09:50:18;32.30;13.10
76211;DHT22;65003;49.518;11.280;2023-04-05T09:52:45;34.40;12.20
76211;DHT22;65003;49.518;11.280;2023-04-05T09:55:11;35.40;12.10
76211;DHT22;65003;49.518;11.280;2023-04-05T09:57:38;36.00;11.80
76211;DHT22;65003;49.518;11.280;2023-04-05T10:00:05;35.90;11.50
76211;DHT22;65003;49.518;11.280;2023-04-05T10:02:36;35.00;11.60
76211;DHT22;65003;49.518;11.280;2023-04-05T10:05:05;33.30;12.30
76211;DHT22;65003;49.518;11.280;2023-04-05T10:07:32;30.80;13.10
76211;DHT22;65003;49.518;11.280;2023-04-05T10:09:58;28.10;14.10
76211;DHT22;65003;49.518;11.280;2023-04-05T10:12:25;24.90;15.40
76211;DHT22;65003;49.518;11.280;2023-04-05T10:14:53;22.40;17.40
76211;DHT22;65003;49.518;11.280;2023-04-05T10:17:26;20.70;19.10
76211;DHT22;65003;49.518;11.280;2023-04-05T10:19:56;19.10;20.70
76211;DHT22;65003;49.518;11.280;2023-04-05T10:22:23;18.40;21.50
76211;DHT22;65003;49.518;11.280;2023-04-05T10:24:51;18.70;22.00
76211;DHT22;65003;49.518;11.280;2023-04-05T10:27:20;21.80;19.30
76211;DHT22;65003;49.518;11.280;2023-04-05T10:29:49;22.20;18.00
76211;DHT22;65003;49.518;11.280;2023-04-05T10:32:13;21.00;18.20
76211;DHT22;65003;49.518;11.280;2023-04-05T10:34:44;18.80;20.20
76211;DHT22;65003;49.518;11.280;2023-04-05T10:37:08;17.20;21.70
76211;DHT22;65003;49.518;11.280;2023-04-05T10:39:41;15.90;23.00
76211;DHT22;65003;49.518;11.280;2023-04-05T10:42:09;15.10;24.20
76211;DHT22;65003;49.518;11.280;2023-04-05T10:44:33;14.70;24.40
76211;DHT22;65003;49.518;11.280;2023-04-05T10:46:59;14.20;24.40
76211;DHT22;65003;49.518;11.280;2023-04-05T10:49:31;14.30;25.20
76211;DHT22;65003;49.518;11.280;2023-04-05T10:51:57;14.50;25.30
76211;DHT22;65003;49.518;11.280;2023-04-05T10:54:24;16.40;23.80
76211;DHT22;65003;49.518;11.280;2023-04-05T10:56:50;20.90;20.00
76211;DHT22;65003;49.518;11.280;2023-04-05T10:59:17;25.20;17.10
76211;DHT22;65003;49.518;11.280;2023-04-05T11:01:44;28.50;15.80
76211;DHT22;65003;49.518;11.280;2023-04-05T11:04:12;30.90;13.50
76211;DHT22;65003;49.518;11.280;2023-04-05T11:06:39;32.60;13.80
76211;DHT22;65003;49.518;11.280;2023-04-05T11:09:21;32.80;12.50
76211;DHT22;65003;49.518;11.280;2023-04-05T11:11:48;31.00;13.00
76211;DHT22;65003;49.518;11.280;2023-04-05T11:14:20;27.80;14.30
76211;DHT22;65003;49.518;11.280;2023-04-05T11:16:47;25.10;16.50
76211;DHT22;65003;49.518;11.280;2023-04-05T11:19:15;22.80;17.80
76211;DHT22;65003;49.518;11.280;2023-04-05T11:21:42;21.20;19.40
76211;DHT22;65003;49.518;11.280;2023-04-05T11:24:10;19.90;19.80
76211;DHT22;65003;49.518;11.280;2023-04-05T11:26:54;18.50;20.60
76211;DHT22;65003;49.518;11.280;2023-04-05T11:29:44;17.80;21.40
76211;DHT22;65003;49.518;11.280;2023-04-05T11:31:57;17.60;22.00
76211;DHT22;65003;49.518;11.280;2023-04-05T11:34:23;17.30;22.00
76211;DHT22;65003;49.518;11.280;2023-04-05T11:36:49;16.90;22.50
76211;DHT22;65003;49.518;11.280;2023-04-05T11:39:24;16.70;22.60
76211;DHT22;65003;49.518;11.280;2023-04-05T11:42:09;16.70;23.30
76211;DHT22;65003;49.518;11.280;2023-04-05T11:44:46;16.80;23.00
76211;DHT22;65003;49.518;11.280;2023-04-05T11:47:16;16.80;22.60
76211;DHT22;65003;49.518;11.280;2023-04-05T11:49:42;16.80;23.00
76211;DHT22;65003;49.518;11.280;2023-04-05T11:52:13;16.60;22.70
76211;DHT22;65003;49.518;11.280;2023-04-05T11:54:39;16.00;23.50
76211;DHT22;65003;49.518;11.280;2023-04-05T11:57:05;15.70;24.30
76211;DHT22;65003;49.518;11.280;2023-04-05T11:59:33;15.70;23.50
76211;DHT22;65003;49.518;11.280;2023-04-05T12:02:00;15.60;24.00
76211;DHT22;65003;49.518;11.280;2023-04-05T12:04:26;15.30;24.70
76211;DHT22;65003;49.518;11.280;2023-04-05T12:09:31;14.60;24.70
76211;DHT22;65003;49.518;11.280;2023-04-05T12:11:57;14.50;26.10
76211;DHT22;65003;49.518;11.280;2023-04-05T12:14:24;14.50;25.60
76211;DHT22;65003;49.518;11.280;2023-04-05T12:16:51;14.70;25.30
76211;DHT22;65003;49.518;11.280;2023-04-05T12:19:18;14.60;25.40
76211;DHT22;65003;49.518;11.280;2023-04-05T12:21:45;14.40;25.60
76211;DHT22;65003;49.518;11.280;2023-04-05T12:24:11;14.50;25.30
76211;DHT22;65003;49.518;11.280;2023-04-05T12:26:38;14.80;26.10
76211;DHT22;65003;49.518;11.280;2023-04-05T12:29:05;14.70;25.60
76211;DHT22;65003;49.518;11.280;2023-04-05T12:31:39;14.80;25.30
76211;DHT22;65003;49.518;11.280;2023-04-05T12:34:05;14.40;25.40
76211;DHT22;65003;49.518;11.280;2023-04-05T12:36:32;14.00;25.80
76211;DHT22;65003;49.518;11.280;2023-04-05T12:38:58;13.90;26.30
76211;DHT22;65003;49.518;11.280;2023-04-05T12:41:30;13.80;26.40
76211;DHT22;65003;49.518;11.280;2023-04-05T12:43:56;13.50;26.30
76211;DHT22;65003;49.518;11.280;2023-04-05T12:46:38;13.30;26.80
76211;DHT22;65003;49.518;11.280;2023-04-05T12:49:04;12.90;27.30
76211;DHT22;65003;49.518;11.280;2023-04-05T12:51:31;12.80;28.00
76211;DHT22;65003;49.518;11.280;2023-04-05T12:54:00;12.80;27.80
76211;DHT22;65003;49.518;11.280;2023-04-05T12:56:26;12.60;27.90
76211;DHT22;65003;49.518;11.280;2023-04-05T12:58:52;12.80;28.90
76211;DHT22;65003;49.518;11.280;2023-04-05T13:01:18;12.70;27.70
76211;DHT22;65003;49.518;11.280;2023-04-05T13:03:46;12.50;27.80
76211;DHT22;65003;49.518;11.280;2023-04-05T13:06:12;12.40;27.80
76211;DHT22;65003;49.518;11.280;2023-04-05T13:08:39;12.60;28.30
76211;DHT22;65003;49.518;11.280;2023-04-05T13:11:06;11.90;27.90
76211;DHT22;65003;49.518;11.280;2023-04-05T13:13:32;12.50;27.70
76211;DHT22;65003;49.518;11.280;2023-04-05T13:15:59;12.50;28.30
76211;DHT22;65003;49.518;11.280;2023-04-05T13:18:25;12.60;28.60
76211;DHT22;65003;49.518;11.280;2023-04-05T13:20:52;12.60;27.90
76211;DHT22;65003;49.518;11.280;2023-04-05T13:23:19;12.30;28.30
76211;DHT22;65003;49.518;11.280;2023-04-05T13:25:45;12.40;29.20
76211;DHT22;65003;49.518;11.280;2023-04-05T13:28:13;12.60;30.40
76211;DHT22;65003;49.518;11.280;2023-04-05T13:30:38;12.80;29.30
76211;DHT22;65003;49.518;11.280;2023-04-05T13:33:05;12.70;28.70
76211;DHT22;65003;49.518;11.280;2023-04-05T13:35:33;12.80;28.60
76211;DHT22;65003;49.518;11.280;2023-04-05T13:37:59;12.80;28.60
76211;DHT22;65003;49.518;11.280;2023-04-05T13:40:26;12.70;28.20
76211;DHT22;65003;49.518;11.280;2023-04-05T13:42:52;12.80;28.70
76211;DHT22;65003;49.518;11.280;2023-04-05T13:45:19;12.70;28.80
76211;DHT22;65003;49.518;11.280;2023-04-05T13:47:47;12.50;28.20
76211;DHT22;65003;49.518;11.280;2023-04-05T13:50:13;12.20;28.50
76211;DHT22;65003;49.518;11.280;2023-04-05T13:52:40;12.20;28.90
76211;DHT22;65003;49.518;11.280;2023-04-05T13:55:07;12.10;28.70
76211;DHT22;65003;49.518;11.280;2023-04-05T13:57:33;11.80;29.20
76211;DHT22;65003;49.518;11.280;2023-04-05T14:00:00;11.60;29.90
76211;DHT22;65003;49.518;11.280;2023-04-05T14:02:27;11.50;29.20
76211;DHT22;65003;49.518;11.280;2023-04-05T14:04:54;11.50;30.00
76211;DHT22;65003;49.518;11.280;2023-04-05T14:07:21;11.40;29.90
76211;DHT22;65003;49.518;11.280;2023-04-05T14:09:47;11.50;31.10
76211;DHT22;65003;49.518;11.280;2023-04-05T14:12:14;11.70;31.10
76211;DHT22;65003;49.518;11.280;2023-04-05T14:14:40;11.80;29.30
76211;DHT22;65003;49.518;11.280;2023-04-05T14:17:07;11.80;28.90
76211;DHT22;65003;49.518;11.280;2023-04-05T14:19:34;11.90;29.40
76211;DHT22;65003;49.518;11.280;2023-04-05T14:22:01;12.00;29.40
76211;DHT22;65003;49.518;11.280;2023-04-05T14:24:28;12.00;28.80
76211;DHT22;65003;49.518;11.280;2023-04-05T14:26:54;12.10;30.40
76211;DHT22;65003;49.518;11.280;2023-04-05T14:29:21;12.20;30.90
76211;DHT22;65003;49.518;11.280;2023-04-05T14:31:47;12.60;30.10
76211;DHT22;65003;49.518;11.280;2023-04-05T14:34:14;12.60;29.00
76211;DHT22;65003;49.518;11.280;2023-04-05T14:36:41;12.40;28.90
76211;DHT22;65003;49.518;11.280;2023-04-05T14:39:08;12.20;29.90
76211;DHT22;65003;49.518;11.280;2023-04-05T14:41:35;12.30;29.80
76211;DHT22;65003;49.518;11.280;2023-04-05T14:44:01;12.50;29.80
76211;DHT22;65003;49.518;11.280;2023-04-05T14:46:28;12.40;29.70
76211;DHT22;65003;49.518;11.280;2023-04-05T14:48:54;12.30;29.00
76211;DHT22;65003;49.518;11.280;2023-04-05T14:51:21;12.10;29.90
76211;DHT22;65003;49.518;11.280;2023-04-05T14:53:48;11.90;29.80
76211;DHT22;65003;49.518;11.280;2023-04-05T14:56:15;11.80;30.60
76211;DHT22;65003;49.518;11.280;2023-04-05T14:58:42;12.00;30.20
76211;DHT22;65003;49.518;11.280;2023-04-05T15:01:08;12.10;30.30
76211;DHT22;65003;49.518;11.280;2023-04-05T15:03:35;12.10;30.80
76211;DHT22;65003;49.518;11.280;2023-04-05T15:06:02;12.20;29.40
76211;DHT22;65003;49.518;11.280;2023-04-05T15:08:28;12.40;29.00
76211;DHT22;65003;49.518;11.280;2023-04-05T15:10:55;12.20;29.00
76211;DHT22;65003;49.518;11.280;2023-04-05T15:13:21;11.90;28.90
76211;DHT22;65003;49.518;11.280;2023-04-05T15:15:48;12.00;29.30
76211;DHT22;65003;49.518;11.280;2023-04-05T15:18:15;11.90;29.80
76211;DHT22;65003;49.518;11.280;2023-04-05T15:20:41;11.60;29.30
76211;DHT22;65003;49.518;11.280;2023-04-05T15:23:08;11.50;29.40
76211;DHT22;65003;49.518;11.280;2023-04-05T15:25:35;11.40;29.90
76211;DHT22;65003;49.518;11.280;2023-04-05T15:28:01;11.30;30.00
76211;DHT22;65003;49.518;11.280;2023-04-05T15:30:28;11.20;29.80